Time;durP1;ratioP1;P1;durP2;ratioP2;P2;SDS_P1;SDS_P2;PMS_P1;PMS_P2;Temp;Humidity;BMP_temperature;BMP_pressure;BME280_temperature;BME280_humidity;BME280_pressure;Samples;Min_cycle;Max_cycle;Signal;HPM_P1;HPM_P2
2022/11/23 00:01:36;;;;;;;2.85;1.42;;;;;;;7.14;76.34;101465.73;1891638;76;21629;-46
2022/11/23 00:04:10;;;;;;;5.05;1.92;;;;;;;7.15;76.36;101458.28;1891856;76;21119;-47
2022/11/23 00:06:39;;;;;;;2.55;1.20;;;;;;;7.14;76.37;101460.50;1891825;76;21440;-47
2022/11/23 00:09:09;;;;;;;2.00;1.40;;;;;;;7.13;76.40;101463.99;1891733;76;21085;-46
2022/11/23 00:11:38;;;;;;;3.77;1.22;;;;;;;7.11;76.39;101463.15;1877185;75;21048;-47
2022/11/23 00:14:07;;;;;;;2.47;1.02;;;;;;;7.08;76.41;101464.48;1876915;76;21098;-46
2022/11/23 00:16:36;;;;;;;4.12;1.20;;;;;;;7.04;76.45;101462.80;1876937;76;21430;-46
2022/11/23 00:19:04;;;;;;;6.45;1.20;;;;;;;7.00;76.46;101450.64;1877079;76;21117;-96
2022/11/23 00:21:33;;;;;;;3.17;1.17;;;;;;;6.96;76.46;101448.50;1876971;76;21075;-96
2022/11/23 00:24:02;;;;;;;3.17;1.47;;;;;;;6.92;76.57;101453.36;1877086;76;21044;-96
2022/11/23 00:26:31;;;;;;;1.42;1.00;;;;;;;6.90;76.60;101461.69;1876828;76;21129;-49
2022/11/23 00:29:00;;;;;;;3.75;1.62;;;;;;;6.91;76.57;101470.80;1876912;76;21133;-50
2022/11/23 00:31:28;;;;;;;6.58;3.10;;;;;;;6.93;76.43;101478.22;1889215;75;21095;-46
2022/11/23 00:33:58;;;;;;;3.72;1.60;;;;;;;6.89;76.21;101470.41;1891996;76;21093;-46
2022/11/23 00:36:27;;;;;;;3.52;1.30;;;;;;;6.86;76.18;101473.94;1892102;76;21475;-47
2022/11/23 00:38:57;;;;;;;2.17;1.37;;;;;;;6.83;76.29;101476.58;1891235;76;21045;-46
2022/11/23 00:41:27;;;;;;;3.50;1.50;;;;;;;6.76;76.55;101468.38;1891705;76;21065;-49
2022/11/23 00:43:56;;;;;;;3.55;1.40;;;;;;;6.73;76.60;101470.59;1890260;76;21037;-47
2022/11/23 00:46:27;;;;;;;3.65;1.15;;;;;;;6.69;76.61;101466.70;1884469;75;21119;-48
2022/11/23 00:48:57;;;;;;;2.77;1.40;;;;;;;6.65;76.72;101470.25;1874652;76;21604;-45
2022/11/23 00:51:32;;;;;;;2.00;1.00;;;;;;;6.62;76.74;101463.73;1895853;75;21492;-46
2022/11/23 00:54:02;;;;;;;2.08;1.20;;;;;;;6.62;76.75;101455.88;1892727;75;21089;-46
2022/11/23 00:56:33;;;;;;;5.12;1.22;;;;;;;6.62;76.77;101456.77;1894519;74;21054;-46
2022/11/23 00:59:03;;;;;;;2.65;1.00;;;;;;;6.61;76.59;101462.02;1904482;74;21029;-46
2022/11/23 01:01:35;;;;;;;3.62;1.60;;;;;;;6.61;76.64;101464.63;1895644;75;21465;-46
2022/11/23 01:04:06;;;;;;;4.12;1.57;;;;;;;6.59;76.64;101464.64;1881996;76;21091;-46
2022/11/23 01:06:38;;;;;;;5.50;1.30;;;;;;;6.60;76.58;101458.96;1882081;76;21111;-46
2022/11/23 01:09:09;;;;;;;4.92;1.72;;;;;;;6.63;76.36;101451.09;1882178;76;21052;-46
2022/11/23 01:11:38;;;;;;;5.42;2.27;;;;;;;6.64;76.23;101449.77;1885612;76;21066;-47
2022/11/23 01:14:07;;;;;;;6.50;1.85;;;;;;;6.64;76.09;101447.56;1886095;76;21082;-49
2022/11/23 01:16:39;;;;;;;5.75;2.40;;;;;;;6.65;76.01;101440.16;1885994;76;21195;-49
2022/11/23 01:19:11;;;;;;;5.80;1.90;;;;;;;6.65;75.94;101445.39;1886491;76;21038;-46
2022/11/23 01:21:42;;;;;;;5.60;2.08;;;;;;;6.66;75.89;101451.03;1887150;75;21101;-59
2022/11/23 01:24:16;;;;;;;5.30;2.05;;;;;;;6.63;75.95;101447.16;1893585;75;21031;-57
2022/11/23 01:26:45;;;;;;;6.30;2.42;;;;;;;6.57;76.06;101450.27;1893701;75;21121;-50
2022/11/23 01:29:14;;;;;;;3.37;1.35;;;;;;;6.54;76.14;101454.66;1891153;75;21063;-47
2022/11/23 01:31:43;;;;;;;5.72;1.65;;;;;;;6.48;76.17;101454.74;1887269;75;21074;-48
2022/11/23 01:34:14;;;;;;;6.85;1.55;;;;;;;6.36;76.50;101455.71;1888015;74;21058;-48
2022/11/23 01:36:43;;;;;;;5.50;2.20;;;;;;;6.28;76.66;101454.48;1893596;75;21043;-49
2022/11/23 01:39:12;;;;;;;4.92;1.60;;;;;;;6.25;76.74;101452.34;1894830;75;21458;-48
2022/11/23 01:41:44;;;;;;;7.05;2.15;;;;;;;6.26;76.73;101451.48;1893411;75;21467;-49
2022/11/23 01:44:29;;;;;;;3.00;1.95;;;;;;;6.21;76.77;101463.27;1895650;75;21031;-51
2022/11/23 01:47:00;;;;;;;4.20;2.10;;;;;;;6.16;76.91;101458.52;1895602;75;21071;-49
2022/11/23 01:49:32;;;;;;;4.03;1.98;;;;;;;6.11;77.04;101453.80;1894484;75;21212;-50
2022/11/23 01:52:03;;;;;;;4.95;1.67;;;;;;;6.14;77.04;101455.05;1880241;75;21038;-47
2022/11/23 01:54:37;;;;;;;4.45;2.05;;;;;;;6.19;76.92;101450.20;1874671;75;21031;-47
2022/11/23 01:57:09;;;;;;;4.03;1.82;;;;;;;6.23;76.80;101462.81;1883646;76;21137;-46
2022/11/23 01:59:38;;;;;;;7.28;1.72;;;;;;;6.19;76.77;101467.20;1883571;76;21059;-46
2022/11/23 02:02:08;;;;;;;4.20;1.55;;;;;;;6.17;76.79;101461.13;1883784;76;21042;-47
2022/11/23 02:04:40;;;;;;;5.05;2.10;;;;;;;6.17;76.74;101460.27;1883531;76;21054;-48
2022/11/23 02:07:09;;;;;;;10.00;2.65;;;;;;;6.15;76.66;101465.95;1883531;76;21003;-52
2022/11/23 02:09:38;;;;;;;9.58;2.62;;;;;;;6.13;76.66;101468.58;1883557;76;21478;-48
2022/11/23 02:12:15;;;;;;;9.45;4.22;;;;;;;6.12;76.60;101466.86;1883348;76;21079;-50
2022/11/23 02:14:45;;;;;;;14.60;4.10;;;;;;;6.10;76.65;101471.20;1883492;76;21351;-49
2022/11/23 02:17:14;;;;;;;7.35;3.58;;;;;;;6.07;76.59;101466.03;1883441;76;21442;-48
2022/11/23 02:19:54;;;;;;;6.90;2.22;;;;;;;6.05;76.53;101467.79;1882540;76;21617;-49
2022/11/23 02:22:26;;;;;;;5.72;2.50;;;;;;;6.00;76.57;101461.73;1882511;76;21063;-47
2022/11/23 02:24:56;;;;;;;4.17;1.95;;;;;;;5.97;76.78;101457.82;1881778;76;21084;-49
2022/11/23 02:27:27;;;;;;;13.15;8.55;;;;;;;5.95;76.90;101459.13;1883268;75;21066;-47
2022/11/23 02:29:57;;;;;;;10.00;5.08;;;;;;;5.94;76.97;101461.76;1883625;76;21137;-48
2022/11/23 02:32:26;;;;;;;4.95;2.50;;;;;;;5.90;77.04;101469.17;1883790;76;21157;-47
2022/11/23 02:34:56;;;;;;;5.92;1.77;;;;;;;5.83;77.20;101466.17;1883666;76;21150;-48
2022/11/23 02:37:26;;;;;;;5.62;1.67;;;;;;;5.74;77.34;101457.98;1884330;75;21098;-50
2022/11/23 02:39:56;;;;;;;6.85;1.80;;;;;;;5.68;77.51;101454.98;1883640;76;21251;-48
2022/11/23 02:42:27;;;;;;;6.37;1.92;;;;;;;5.71;77.52;101458.00;1879226;76;21171;-53
2022/11/23 02:45:15;;;;;;;3.45;2.20;;;;;;;5.76;77.39;101450.55;1878607;75;21141;-47
2022/11/23 02:47:44;;;;;;;4.72;1.92;;;;;;;5.80;77.20;101453.56;1877701;76;21160;-49
2022/11/23 02:50:13;;;;;;;5.12;1.82;;;;;;;5.84;77.15;101447.02;1881481;75;21148;-47
2022/11/23 02:52:43;;;;;;;6.70;2.60;;;;;;;5.88;77.07;101439.57;1893227;75;21244;-48
2022/11/23 02:55:12;;;;;;;5.45;2.95;;;;;;;5.90;76.99;101441.73;1886006;75;21585;-48
2022/11/23 02:57:40;;;;;;;8.83;3.50;;;;;;;5.92;76.97;101442.58;1883554;75;21043;-48
2022/11/23 03:00:12;;;;;;;6.15;2.42;;;;;;;5.93;77.02;101452.17;1885308;76;21078;-46
2022/11/23 03:02:40;;;;;;;10.20;2.98;;;;;;;5.95;77.05;101459.55;1884716;76;21153;-45
2022/11/23 03:05:11;;;;;;;8.30;3.35;;;;;;;5.97;77.02;101461.74;1880401;76;21145;-48
2022/11/23 03:07:39;;;;;;;10.35;2.95;;;;;;;5.97;77.08;101468.28;1883113;75;21077;-48
2022/11/23 03:10:10;;;;;;;6.00;2.30;;;;;;;5.94;77.07;101467.84;1887251;75;21225;-46
2022/11/23 03:12:39;;;;;;;6.45;2.52;;;;;;;5.93;77.12;101463.93;1889809;75;21597;-48
2022/11/23 03:15:09;;;;;;;7.97;3.25;;;;;;;5.92;77.16;101460.87;1882972;76;21650;-47
2022/11/23 03:17:39;;;;;;;9.63;4.15;;;;;;;5.90;77.17;101463.95;1883982;76;21179;-48
2022/11/23 03:20:10;;;;;;;9.45;3.90;;;;;;;5.88;77.17;101468.32;1890934;75;21261;-47
2022/11/23 03:22:41;;;;;;;12.73;4.90;;;;;;;5.87;77.14;101461.38;1879394;76;21121;-50
2022/11/23 03:25:11;;;;;;;7.42;3.83;;;;;;;5.82;77.30;101460.09;1881776;76;21125;-49
2022/11/23 03:27:40;;;;;;;7.45;3.80;;;;;;;5.79;77.26;101463.61;1880522;76;21246;-47
2022/11/23 03:30:09;;;;;;;6.75;3.70;;;;;;;5.79;77.30;101458.80;1881111;76;21039;-52
2022/11/23 03:32:38;;;;;;;10.65;4.28;;;;;;;5.80;77.31;101454.88;1886998;75;21583;-49
2022/11/23 03:35:07;;;;;;;8.78;4.53;;;;;;;5.83;77.34;101443.55;1888966;75;21058;-46
2022/11/23 03:37:38;;;;;;;8.00;3.47;;;;;;;5.80;77.39;101447.03;1882744;76;21180;-57
2022/11/23 03:40:08;;;;;;;5.97;3.20;;;;;;;5.70;77.73;101446.69;1883020;76;21105;-50
2022/11/23 03:42:54;;;;;;;9.50;5.78;;;;;;;5.71;77.75;101448.41;1880570;76;21059;-51
2022/11/23 03:45:23;;;;;;;7.75;5.62;;;;;;;5.75;77.71;101456.64;1878797;76;21240;-48
2022/11/23 03:47:52;;;;;;;12.70;6.35;;;;;;;5.80;77.71;101456.17;1887466;76;21165;-46
2022/11/23 03:50:21;;;;;;;9.10;6.45;;;;;;;5.84;77.64;101462.70;1886205;76;21031;-46
2022/11/23 03:52:50;;;;;;;11.03;7.35;;;;;;;5.86;77.56;101463.55;1887723;75;21087;-47
2022/11/23 03:55:19;;;;;;;12.10;6.17;;;;;;;5.88;77.47;101467.02;1886476;75;21142;-50
2022/11/23 03:57:53;;;;;;;9.90;6.37;;;;;;;5.89;77.47;101469.62;1919397;75;21536;-48
2022/11/23 04:00:21;;;;;;;;;;;;;;;5.89;77.44;101474.84;1897232;75;21113;-46
2022/11/23 04:02:50;;;;;;;11.25;3.83;;;;;;;5.89;77.41;101484.45;1883152;76;20262;-49
2022/11/23 04:05:36;;;;;;;4.58;3.25;;;;;;;5.84;77.43;101492.30;1884740;76;21231;-47
2022/11/23 04:08:15;;;;;;;13.60;5.97;;;;;;;5.83;77.46;101481.44;1880888;75;21098;-49
2022/11/23 04:10:44;;;;;;;13.03;7.72;;;;;;;5.82;77.47;101477.53;1884373;76;21295;-55
2022/11/23 04:13:18;;;;;;;16.40;8.83;;;;;;;5.79;77.57;101475.37;1884657;75;21149;-51
2022/11/23 04:15:47;;;;;;;12.20;7.97;;;;;;;5.76;77.69;101475.38;1884467;76;21130;-50
2022/11/23 04:18:16;;;;;;;15.13;8.65;;;;;;;5.74;77.70;101473.67;1884837;76;21109;-47
2022/11/23 04:20:44;;;;;;;15.38;7.20;;;;;;;5.73;77.71;101474.08;1884625;76;21031;-50
2022/11/23 04:23:13;;;;;;;13.75;8.80;;;;;;;5.75;77.79;101469.71;1885022;76;21090;-51
2022/11/23 04:25:42;;;;;;;16.90;8.73;;;;;;;5.76;77.79;101470.16;1884093;76;21028;-44
2022/11/23 04:28:11;;;;;;;13.15;7.65;;;;;;;5.78;77.74;101472.77;1884715;76;21238;-47
2022/11/23 04:30:39;;;;;;;14.90;6.15;;;;;;;5.78;77.74;101472.31;1884462;76;21019;-47
2022/11/23 04:33:08;;;;;;;10.78;6.45;;;;;;;5.80;77.76;101471.00;1884954;76;21106;-48
2022/11/23 04:35:38;;;;;;;13.85;6.75;;;;;;;5.82;77.69;101471.85;1884720;75;21125;-48
2022/11/23 04:38:07;;;;;;;14.30;7.58;;;;;;;5.82;77.68;101476.22;1885527;76;21184;-49
2022/11/23 04:40:37;;;;;;;16.77;8.55;;;;;;;5.82;77.64;101475.77;1860808;76;21575;-46
2022/11/23 04:43:08;;;;;;;19.98;9.45;;;;;;;5.85;77.60;101469.67;1885000;76;21158;-51
2022/11/23 04:45:39;;;;;;;11.80;4.62;;;;;;;5.83;77.62;101474.02;1885340;76;21189;-50
2022/11/23 04:48:10;;;;;;;9.45;4.78;;;;;;;5.78;77.67;101471.00;1884451;76;21150;-49
2022/11/23 04:50:40;;;;;;;10.50;4.60;;;;;;;5.69;77.77;101468.91;1884290;76;21038;-48
2022/11/23 04:53:10;;;;;;;8.95;4.50;;;;;;;5.64;77.81;101465.00;1876102;75;21076;-46
2022/11/23 04:55:40;;;;;;;17.87;5.80;;;;;;;5.51;78.17;101471.20;1871129;76;21117;-45
2022/11/23 04:58:09;;;;;;;13.40;6.35;;;;;;;5.50;78.19;101466.87;1871950;76;21062;-46
2022/11/23 05:00:38;;;;;;;10.53;5.20;;;;;;;5.49;78.22;101474.27;1872848;76;21556;-45
2022/11/23 05:03:07;;;;;;;10.93;5.15;;;;;;;5.49;78.35;101479.48;1874794;76;21024;-44
2022/11/23 05:05:39;;;;;;;10.05;5.60;;;;;;;5.51;78.45;101474.67;1872402;76;21173;-45
2022/11/23 05:08:09;;;;;;;12.80;6.92;;;;;;;5.59;78.32;101476.81;1859401;76;21661;-45
2022/11/23 05:10:39;;;;;;;29.35;12.40;;;;;;;5.71;78.23;101478.91;1808812;76;21608;-48
2022/11/23 05:13:09;;;;;;;25.32;10.95;;;;;;;5.86;78.15;101484.45;1871265;76;21235;-44
2022/11/23 05:15:38;;;;;;;21.80;12.18;;;;;;;5.97;78.08;101478.28;1870486;76;21575;-44
2022/11/23 05:18:09;;;;;;;15.75;9.60;;;;;;;6.09;77.94;101472.11;1873141;76;21051;-44
2022/11/23 05:20:39;;;;;;;18.05;8.48;;;;;;;6.20;77.80;101470.70;1874087;76;21048;-44
2022/11/23 05:23:08;;;;;;;14.80;8.88;;;;;;;6.29;77.63;101472.34;1879097;76;21473;-46
2022/11/23 05:25:38;;;;;;;14.95;9.43;;;;;;;6.33;77.49;101476.24;1870983;76;21056;-44
2022/11/23 05:28:11;;;;;;;18.30;9.73;;;;;;;6.37;77.42;101473.16;1878866;76;21181;-45
2022/11/23 05:30:41;;;;;;;19.92;12.15;;;;;;;6.46;77.34;101473.52;1875075;76;21160;-47
2022/11/23 05:33:10;;;;;;;19.67;8.38;;;;;;;6.55;77.18;101472.97;1871713;76;21265;-44
2022/11/23 05:35:40;;;;;;;12.00;6.55;;;;;;;6.63;77.01;101474.64;1869010;76;21216;-47
2022/11/23 05:38:08;;;;;;;10.20;5.45;;;;;;;6.59;76.97;101479.48;1871257;76;21508;-44
2022/11/23 05:40:38;;;;;;;14.15;5.25;;;;;;;6.63;76.98;101477.26;1871400;76;21489;-44
2022/11/23 05:43:07;;;;;;;12.55;5.80;;;;;;;6.75;76.99;101471.44;1870448;76;21078;-44
2022/11/23 05:45:36;;;;;;;11.25;5.15;;;;;;;7.00;76.89;101472.45;1873876;76;21536;-44
2022/11/23 05:48:05;;;;;;;11.30;5.42;;;;;;;7.19;76.78;101469.14;1870899;76;21106;-44
2022/11/23 05:50:38;;;;;;;;;;;;;;;7.47;76.52;101471.37;1870934;75;21632;-48
2022/11/23 05:53:24;;;;;;;11.60;4.72;;;;;;;8.31;75.97;101462.59;1876108;76;20151;-45
2022/11/23 05:55:57;;;;;;;9.00;4.85;;;;;;;8.59;75.11;101466.91;1871275;75;21159;-46
2022/11/23 05:58:26;;;;;;;23.32;5.55;;;;;;;8.69;74.51;101466.31;1870461;76;21086;-46
2022/11/23 06:00:59;;;;;;;14.05;4.87;;;;;;;8.87;73.92;101467.25;1874319;76;21162;-47
2022/11/23 06:03:30;;;;;;;14.98;5.08;;;;;;;9.10;73.30;101471.16;1871267;76;21652;-49
2022/11/23 06:05:59;;;;;;;19.27;4.83;;;;;;;9.19;73.16;101467.47;1871238;76;21210;-47
2022/11/23 06:08:29;;;;;;;17.80;5.83;;;;;;;9.33;73.21;101463.21;1881299;75;21530;-44
2022/11/23 06:11:01;;;;;;;7.75;4.00;;;;;;;9.41;73.31;101471.35;1892367;75;21022;-49
2022/11/23 06:13:30;;;;;;;11.75;5.72;;;;;;;9.51;73.18;101465.42;1881936;75;21134;-46
2022/11/23 06:15:59;;;;;;;9.73;4.12;;;;;;;9.60;72.54;101458.64;1873780;76;21035;-45
2022/11/23 06:18:29;;;;;;;10.28;3.27;;;;;;;9.91;72.20;101459.22;1873718;76;21177;-45
2022/11/23 06:21:01;;;;;;;12.20;3.65;;;;;;;10.43;71.32;101457.05;1872933;76;21158;-45
2022/11/23 06:23:30;;;;;;;14.87;4.30;;;;;;;10.58;70.68;101451.80;1873433;76;21426;-51
2022/11/23 06:26:02;;;;;;;8.03;4.28;;;;;;;10.79;70.34;101454.31;1873623;76;21084;-52
2022/11/23 06:28:35;;;;;;;20.37;4.72;;;;;;;10.73;70.31;101453.14;1870318;76;21449;-48
2022/11/23 06:31:05;;;;;;;15.15;4.72;;;;;;;10.64;70.37;101451.63;1873254;76;21044;-49
2022/11/23 06:33:35;;;;;;;27.67;4.30;;;;;;;10.61;70.29;101459.63;1874282;76;21122;-48
2022/11/23 06:36:04;;;;;;;13.03;4.03;;;;;;;10.44;70.06;101460.09;1874942;76;21043;-50
2022/11/23 06:38:38;;;;;;;10.70;3.60;;;;;;;10.30;70.08;101467.00;1873698;76;21474;-48
2022/11/23 06:41:12;;;;;;;7.42;3.50;;;;;;;10.19;70.03;101459.84;1874287;76;21041;-48
2022/11/23 06:43:40;;;;;;;10.13;4.20;;;;;;;10.13;69.90;101457.37;1872221;76;21035;-47
2022/11/23 06:46:11;;;;;;;8.25;4.17;;;;;;;10.07;69.76;101453.56;1871641;76;21134;-48
2022/11/23 06:48:45;;;;;;;7.37;3.87;;;;;;;10.38;69.32;101447.97;1870859;76;21145;-47
2022/11/23 06:51:15;;;;;;;12.75;6.00;;;;;;;10.71;68.76;101441.80;1873509;76;21075;-50
2022/11/23 06:53:45;;;;;;;11.18;5.85;;;;;;;10.52;68.68;101428.29;1872707;76;21122;-49
2022/11/23 06:56:15;;;;;;;20.40;7.70;;;;;;;10.36;68.72;101440.53;1873081;76;21095;-48
2022/11/23 06:58:44;;;;;;;17.10;6.75;;;;;;;10.29;68.91;101444.23;1872430;76;21059;-47
2022/11/23 07:01:14;;;;;;;17.12;5.92;;;;;;;10.25;68.87;101441.24;1873309;75;21563;-47
2022/11/23 07:03:44;;;;;;;13.90;5.15;;;;;;;10.26;69.01;101435.09;1872274;76;21304;-47
2022/11/23 07:06:15;;;;;;;13.00;6.28;;;;;;;10.29;69.03;101440.71;1873011;76;21157;-47
2022/11/23 07:08:44;;;;;;;9.55;4.37;;;;;;;10.47;68.92;101435.44;1873699;76;21178;-47
2022/11/23 07:11:17;;;;;;;11.30;4.62;;;;;;;10.60;68.57;101424.55;1853583;76;21162;-48
2022/11/23 07:13:47;;;;;;;12.90;5.17;;;;;;;10.75;68.32;101420.61;1872967;76;21184;-49
2022/11/23 07:16:16;;;;;;;14.38;5.78;;;;;;;10.78;68.00;101428.40;1873633;76;21086;-49
2022/11/23 07:18:45;;;;;;;18.52;6.70;;;;;;;10.71;68.09;101421.58;1872794;76;21093;-53
2022/11/23 07:21:13;;;;;;;14.90;6.95;;;;;;;10.75;68.05;101423.23;1872807;76;21109;-47
2022/11/23 07:23:42;;;;;;;21.25;6.40;;;;;;;10.79;67.90;101424.02;1873473;75;21142;-49
2022/11/23 07:26:11;;;;;;;16.05;5.85;;;;;;;10.74;67.85;101429.86;1873855;76;21043;-48
2022/11/23 07:28:40;;;;;;;18.80;6.25;;;;;;;10.80;67.94;101425.27;1870883;76;21133;-47
2022/11/23 07:31:09;;;;;;;11.53;5.25;;;;;;;11.53;67.20;101428.36;1873981;76;21232;-46
2022/11/23 07:33:38;;;;;;;16.02;6.15;;;;;;;11.82;66.90;101426.06;1870282;76;21493;-46
2022/11/23 07:36:07;;;;;;;13.22;5.50;;;;;;;11.80;66.56;101421.30;1870962;76;21008;-49
2022/11/23 07:38:37;;;;;;;13.32;5.33;;;;;;;11.80;66.33;101426.58;1873567;76;21550;-47
2022/11/23 07:41:08;;;;;;;20.23;6.65;;;;;;;11.92;66.06;101431.95;1873179;76;21075;-47
2022/11/23 07:43:57;;;;;;;28.32;8.35;;;;;;;11.87;66.12;101426.78;1870470;75;21150;-45
2022/11/23 07:46:25;;;;;;;18.25;6.45;;;;;;;11.61;66.38;101432.92;1872775;76;21102;-46
2022/11/23 07:48:58;;;;;;;34.73;9.90;;;;;;;11.40;66.66;101429.20;1874361;76;21191;-46
2022/11/23 07:51:24;;;;;;;25.97;7.20;;;;;;;11.30;66.85;101439.16;1874641;76;21165;-45
2022/11/23 07:53:53;;;;;;;26.30;6.15;;;;;;;11.26;66.82;101423.49;1868754;76;21141;-50
2022/11/23 07:56:22;;;;;;;33.48;6.15;;;;;;;11.38;66.81;101420.02;1872604;76;21035;-50
2022/11/23 07:58:51;;;;;;;36.48;6.40;;;;;;;11.54;66.66;101419.05;1872258;76;21514;-51
2022/11/23 08:01:20;;;;;;;32.42;6.70;;;;;;;11.65;66.35;101412.11;1871812;76;21662;-48
2022/11/23 08:03:49;;;;;;;31.12;6.45;;;;;;;11.72;66.31;101412.79;1872726;76;21008;-47
2022/11/23 08:06:18;;;;;;;22.07;5.58;;;;;;;11.86;65.97;101401.76;1871909;76;21051;-44
2022/11/23 08:08:47;;;;;;;17.17;3.12;;;;;;;12.06;65.78;101407.71;1870549;76;21043;-46
2022/11/23 08:11:17;;;;;;;14.87;2.92;;;;;;;13.24;63.75;101399.83;1870000;76;21184;-44
2022/11/23 08:13:46;;;;;;;14.80;2.77;;;;;;;14.31;61.80;101394.97;1881339;75;21083;-45
2022/11/23 08:16:15;;;;;;;10.23;2.70;;;;;;;13.99;62.07;101411.80;1878571;75;21059;-45
2022/11/23 08:18:44;;;;;;;9.20;2.40;;;;;;;13.51;62.96;101408.02;1876452;75;21101;-45
2022/11/23 08:21:12;;;;;;;13.95;3.27;;;;;;;13.09;63.59;101399.50;1894792;75;21047;-46
2022/11/23 08:23:41;;;;;;;17.67;4.67;;;;;;;12.78;63.97;101403.81;1909087;75;21086;-46
2022/11/23 08:26:10;;;;;;;11.88;4.53;;;;;;;12.57;64.16;101409.42;1909250;75;21039;-47
2022/11/23 08:28:39;;;;;;;12.55;4.25;;;;;;;12.29;64.44;101399.85;1892100;75;21063;-47
2022/11/23 08:31:11;;;;;;;11.73;3.30;;;;;;;12.08;64.71;101397.95;1886720;75;21043;-47
2022/11/23 08:33:40;;;;;;;12.85;2.22;;;;;;;11.97;64.98;101386.02;1872676;75;21036;-49
2022/11/23 08:36:09;;;;;;;9.55;2.15;;;;;;;11.97;65.07;101383.84;1875002;76;21039;-47
2022/11/23 08:38:38;;;;;;;6.10;1.52;;;;;;;12.02;64.87;101377.06;1877599;75;21067;-43
2022/11/23 08:41:06;;;;;;;5.37;1.75;;;;;;;12.14;64.75;101364.77;1877115;76;21157;-44
2022/11/23 08:43:35;;;;;;;3.15;1.65;;;;;;;12.09;64.59;101370.66;1877050;76;21040;-45
2022/11/23 08:46:04;;;;;;;4.70;1.40;;;;;;;12.07;64.62;101368.06;1876942;76;21133;-44
2022/11/23 08:48:33;;;;;;;5.47;2.00;;;;;;;12.05;64.44;101363.77;1876870;76;21056;-45
2022/11/23 08:51:02;;;;;;;3.50;1.32;;;;;;;11.93;64.16;101351.41;1876991;76;21125;-45
2022/11/23 08:53:31;;;;;;;2.22;1.32;;;;;;;12.05;63.73;101350.58;1876944;76;21035;-46
2022/11/23 08:56:05;;;;;;;3.12;1.10;;;;;;;12.20;62.91;101351.80;1875158;76;21572;-45
2022/11/23 08:58:33;;;;;;;2.80;1.12;;;;;;;12.08;62.58;101361.00;1881276;76;21040;-44
2022/11/23 09:01:04;;;;;;;3.30;1.45;;;;;;;12.01;62.50;101355.09;1879691;76;21137;-47
2022/11/23 09:03:33;;;;;;;3.67;1.10;;;;;;;11.84;62.68;101353.02;1882684;75;21139;-45
2022/11/23 09:06:02;;;;;;;4.28;1.15;;;;;;;11.61;62.67;101345.02;1870289;76;21137;-43
2022/11/23 09:08:30;;;;;;;2.65;1.45;;;;;;;11.41;63.18;101342.58;1873404;76;21012;-44
2022/11/23 09:11:05;;;;;;;4.53;1.70;;;;;;;11.27;63.50;101338.20;1873240;76;21075;-43
2022/11/23 09:13:36;;;;;;;3.30;1.92;;;;;;;11.22;63.74;101330.92;1883642;76;21022;-45
2022/11/23 09:16:06;;;;;;;7.83;2.17;;;;;;;11.27;63.98;101321.06;1878487;76;21019;-44
2022/11/23 09:18:35;;;;;;;5.85;1.60;;;;;;;11.40;64.10;101325.05;1893367;76;21007;-44
2022/11/23 09:21:05;;;;;;;4.58;1.65;;;;;;;11.50;64.14;101326.45;1893232;76;21136;-44
2022/11/23 09:23:34;;;;;;;6.85;1.72;;;;;;;11.59;64.27;101326.14;1876839;76;21094;-45
2022/11/23 09:26:04;;;;;;;5.17;2.02;;;;;;;11.68;64.32;101326.76;1881026;76;20999;-45
2022/11/23 09:28:33;;;;;;;7.28;1.77;;;;;;;11.72;64.32;101327.05;1873973;76;21180;-45
2022/11/23 09:31:04;;;;;;;4.00;1.40;;;;;;;11.73;64.38;101323.48;1884743;76;21438;-44
2022/11/23 09:33:33;;;;;;;6.20;1.32;;;;;;;11.67;64.48;101311.83;1877736;76;21093;-45
2022/11/23 09:36:03;;;;;;;5.22;1.57;;;;;;;11.65;64.63;101304.43;1884265;75;21032;-47
2022/11/23 09:38:32;;;;;;;3.52;1.70;;;;;;;11.62;64.71;101297.93;1878416;76;21133;-46
2022/11/23 09:41:07;;;;;;;9.80;1.80;;;;;;;11.59;64.67;101292.31;1873718;76;21050;-47
2022/11/23 09:44:07;;;;;;;7.92;2.58;;;;;;;11.58;64.79;101281.34;1869655;76;21429;-46
2022/11/23 09:46:39;;;;;;;6.25;1.60;;;;;;;11.77;64.71;101285.55;1874402;76;21089;-44
2022/11/23 09:49:19;;;;;;;6.37;1.87;;;;;;;12.32;63.83;101273.00;1873895;75;21467;-44
2022/11/23 09:51:50;;;;;;;5.30;1.32;;;;;;;12.57;63.13;101269.41;1892830;76;21180;-44
2022/11/23 09:54:24;;;;;;;4.08;1.77;;;;;;;12.72;62.77;101270.59;1893001;75;21172;-45
2022/11/23 09:56:55;;;;;;;6.03;1.60;;;;;;;12.78;62.57;101261.55;1876239;75;21527;-45
2022/11/23 09:59:32;;;;;;;5.25;1.60;;;;;;;12.89;62.57;101254.05;1843492;78;21105;-44
2022/11/23 10:02:01;;;;;;;5.28;1.65;;;;;;;13.13;62.36;101258.80;1845912;78;21500;-45
2022/11/23 10:04:35;;;;;;;3.15;1.45;;;;;;;13.20;62.34;101258.09;1842799;78;21055;-46
2022/11/23 10:07:18;;;;;;;5.00;1.55;;;;;;;13.21;62.15;101255.86;1834184;78;21027;-45
2022/11/23 10:10:05;;;;;;;4.08;1.42;;;;;;;13.30;62.06;101255.47;1820502;78;21074;-50
2022/11/23 10:13:08;;;;;;;5.30;1.60;;;;;;;13.74;61.37;101252.73;1818200;78;21118;-47
2022/11/23 10:15:49;;;;;;;3.27;2.27;;;;;;;13.89;61.23;101248.53;1828436;77;21093;-46
2022/11/23 10:18:20;;;;;;;3.98;1.47;;;;;;;13.74;61.17;101236.84;1816250;78;21070;-46
2022/11/23 10:21:10;;;;;;;3.58;1.60;;;;;;;13.55;60.96;101222.22;1835058;78;21055;-46
2022/11/23 10:23:57;;;;;;;5.65;1.67;;;;;;;13.37;61.41;101216.41;1834199;78;21094;-45
2022/11/23 10:26:32;;;;;;;3.75;1.75;;;;;;;13.23;61.79;101215.66;1835954;78;21117;-45
2022/11/23 10:29:15;;;;;;;6.45;1.60;;;;;;;13.14;61.81;101206.33;1835986;78;21216;-48
2022/11/23 10:31:49;;;;;;;3.20;1.40;;;;;;;13.07;61.97;101205.71;1835397;76;21505;-45
2022/11/23 10:34:37;;;;;;;3.27;1.50;;;;;;;13.01;61.91;101209.09;1834522;78;21133;-43
2022/11/23 10:37:12;;;;;;;4.35;1.60;;;;;;;12.95;62.09;101210.21;1834336;78;21032;-47
2022/11/23 10:39:40;;;;;;;3.00;1.30;;;;;;;12.98;62.35;101206.56;1834798;78;21031;-45
2022/11/23 10:42:37;;;;;;;5.22;1.50;;;;;;;12.88;62.55;101206.95;1834807;78;21130;-47
2022/11/23 10:45:08;;;;;;;4.58;1.40;;;;;;;12.80;62.71;101205.53;1806151;79;21517;-47
2022/11/23 10:47:43;;;;;;;2.83;1.15;;;;;;;12.64;62.80;101203.52;1805986;79;21493;-46
2022/11/23 10:50:20;;;;;;;2.90;1.27;;;;;;;12.54;62.99;101196.88;1823643;78;21051;-46
2022/11/23 10:52:55;;;;;;;3.15;1.12;;;;;;;12.46;63.23;101188.41;1825184;78;21031;-47
2022/11/23 10:55:27;;;;;;;5.35;1.45;;;;;;;12.41;63.41;101190.37;1835893;78;21157;-50
2022/11/23 10:57:57;;;;;;;2.08;1.30;;;;;;;12.39;63.52;101194.39;1847583;77;21053;-49
2022/11/23 11:00:28;;;;;;;3.35;1.15;;;;;;;12.39;63.64;101193.06;1856319;77;21127;-47
2022/11/23 11:02:59;;;;;;;3.02;1.20;;;;;;;12.40;63.69;101197.91;1856367;77;21046;-46
2022/11/23 11:05:30;;;;;;;1.17;0.95;;;;;;;12.33;63.83;101191.53;1856435;77;21034;-47
2022/11/23 11:08:02;;;;;;;3.55;1.52;;;;;;;12.31;63.94;101196.02;1863094;76;21148;-46
2022/11/23 11:10:42;;;;;;;1.20;0.82;;;;;;;12.36;64.00;101191.42;1869532;77;21007;-47
2022/11/23 11:13:29;;;;;;;12.00;1.40;;;;;;;12.43;63.98;101184.56;1856659;77;21113;-47
2022/11/23 11:16:04;;;;;;;2.90;1.35;;;;;;;12.50;63.96;101188.68;1869531;77;21055;-46
2022/11/23 11:18:35;;;;;;;3.52;1.35;;;;;;;12.57;63.90;101190.16;1868224;77;21011;-47
2022/11/23 11:21:07;;;;;;;4.55;1.22;;;;;;;12.61;63.81;101182.50;1838540;77;21097;-46
2022/11/23 11:23:38;;;;;;;6.70;1.65;;;;;;;12.69;63.83;101190.14;1836386;78;21510;-48
2022/11/23 11:26:10;;;;;;;9.05;1.65;;;;;;;12.80;63.78;101185.28;1834675;78;21153;-46
2022/11/23 11:28:41;;;;;;;9.50;1.27;;;;;;;12.94;63.62;101172.80;1832402;78;21094;-45
2022/11/23 11:31:19;;;;;;;7.75;1.52;;;;;;;13.02;63.55;101170.70;1841693;77;21162;-49
2022/11/23 11:34:07;;;;;;;18.17;4.75;;;;;;;13.03;63.57;101165.80;1836763;77;21050;-46
2022/11/23 11:36:48;;;;;;;5.50;2.98;;;;;;;13.08;63.63;101171.75;1848660;77;21484;-45
2022/11/23 11:39:25;;;;;;;5.58;1.92;;;;;;;13.09;63.73;101172.13;1838265;77;21523;-45
2022/11/23 11:41:56;;;;;;;5.92;2.67;;;;;;;13.06;63.83;101165.67;1839548;77;21034;-47
2022/11/23 11:44:27;;;;;;;11.68;5.17;;;;;;;13.01;63.98;101166.80;1838709;78;21477;-46
2022/11/23 11:46:58;;;;;;;15.13;6.37;;;;;;;13.00;64.07;101154.02;1834002;78;21040;-47